86CO weather

Lazy W Airport
Berthoud, Colorado, United States

Public forecast

Using degrees Fahrenheit for public forecast. Weather courtesy of forecast.io.

Closest aviation weather report (METAR) to Lazy W Airport

Closest report is Vance Brand Airport, 9.0 nm (16.7 km) S. Retrieved 2019/10/23 13:35 UTC (24 minutes ago):

KLMO 231335Z AUTO 10005KT 10SM CLR 04/00 A3008 RMK AO2 T00431005

Closest aviation forecast (TAF) to Lazy W Airport

Closest forecast is Rocky Mountain Metropolitan Airport, 24.3 nm (45.1 km) S. Retrieved 2019/10/23 12:24 UTC (2 hours ago):

TAF KBJC 231121Z 2312/2412 30015G25KT P6SM SCT200 FM231400 33012KT P6SM SCT100 SCT200 FM232100 03015G25KT P6SM SCT040 BKN080 TEMPO 2321/2324 -SHRA BKN040 OVC080 FM240000 03012KT 3SM -SHSN BR BKN015 OVC030 TEMPO 2400/2403 3/4SM -SHSN BR OVC006 FM240300 03008KT 2SM -SN BR SCT006 OVC012 TEMPO 2403/2406 3/4SM -SN BR OVC006 FM240600 03007KT 4SM -SN BR SCT006 OVC012 TEMPO 2406/2409 2SM -SN BR OVC006